Killeen, TX

4:50 AM CST en Diciembre 19, 2014 (GMT -0600)
Pecan Valley | Change Station
CLOSE
Current Station
Estación meteorológica personal
Location: Kempner, TX
Altura: 942 ft
Estaciones meteorológicas cercanas

Alt 942 ft 31.11 °N, 97.99 °W | Updated 12 seconds ago

Nublado
Nublado
46.5 ° F
Sensación térmica 44 ° F
N
6.0
Viento Variable Viento desde NE
Gusts 13.0 mph

Hoy
Alta -- | Baja -- ° F
--% Posibilidad de precipitaciones
Ayer
Alta -- | Baja -- ° F
Precip. -- pul
7:25 AM 5:33 PM
Creciente menguante, 8% visible
Presión 30.08 pul
Visibilidad 4.0 Millas
Nubes Nublado 500 ft
Vientos helados 44 ° F
Punto de rocío 45 ° F
Humedad 95%
Precipitaciones 0.00 pul
Espesor de la nieve No disponible.
UV 0 de una escala de 12
Polen 8.10 de una escala de 12
Calidad del aire No disponible.
Flu Activity No disponible.
SPECI KGRK 191003Z AUTO 02007KT 4SM BR VCTS OVC005 08/08 A3008 RMK AO2 LTG DSNT W $

More Conditions Fewer Conditions

Presión 30.08 pul
Visibilidad 4.0 Millas
Nubes Nublado 500 ft
Vientos helados 44 ° F
Punto de rocío 45 ° F
Humedad 95%
Precipitaciones 0.00 pul
Espesor de la nieve No disponible.
UV 0 de una escala de 12
Polen 8.10 de una escala de 12
Calidad del aire No disponible.
Flu Activity No disponible.
SPECI KGRK 191003Z AUTO 02007KT 4SM BR VCTS OVC005 08/08 A3008 RMK AO2 LTG DSNT W $

More Conditions Fewer Conditions

Nowcast | as of 3:24 am CST on December 19, 2014

Scattered to numerous showers and isolated thunderstorms will continue to move northeast across north and central Texas through 8 am. The rain will be mostly light to moderate though some brief heavy rain and cloud to ground lightning will accompany some of the thunderstorms as they move northeast at 35 mph.

×

10-Day Weather Forecast

Almanac

Astronomía

Dec. 19, 2014 Salida Puesta
Hora real
Crepúsculo civil
Crepúsculo náutico
Crepúsculo astronómico
Luna
Horas de luz
Horas de luz
Tomorrow will be .
, % of the Moon is Illuminated

Extremos de hoy

Máximos del estado Bajos del estado

Community

WunderPhotos

Upload Photos

1,778,966 ¡fotos cargadas!

WunderBlogs® & News

Nearby

Calidad del aire

  Calidad del aire Índice AQ Contaminante
Not available.

Grosos de nieve

Estación Profundido Altura

Actividad de terremotos

Ciudad Distance Mag. Tiempo y dato
Magnitud mínima muestra es 2,5.

Temperaturas de aguas costeras

Lugar Temperatura

Estaciones meteorológicas cercanas